createdAt,value
2022-12-17T00:02:34.943Z,7.38
2022-12-17T00:05:20.233Z,7.37
2022-12-17T00:08:05.057Z,7.07
2022-12-17T00:10:49.752Z,6.88
2022-12-17T00:13:41.540Z,6.91
2022-12-17T00:16:26.990Z,7.12
2022-12-17T00:19:12.117Z,7.02
2022-12-17T00:21:56.947Z,7.11
2022-12-17T00:24:42.240Z,7.02
2022-12-17T00:27:26.930Z,7.25
2022-12-17T00:30:11.813Z,7.03
2022-12-17T00:32:57.107Z,7.16
2022-12-17T00:35:42.047Z,6.94
2022-12-17T00:38:33.467Z,6.91
2022-12-17T00:41:18.400Z,6.96
2022-12-17T00:44:03.379Z,6.90
2022-12-17T00:46:48.749Z,7.10
2022-12-17T00:49:33.939Z,7.12
2022-12-17T00:52:19.844Z,7.16
2022-12-17T00:55:04.644Z,6.90
2022-12-17T00:57:49.451Z,7.14
2022-12-17T01:00:34.788Z,7.07
2022-12-17T01:03:29.068Z,6.86
2022-12-17T01:06:14.341Z,6.88
2022-12-17T01:08:59.160Z,6.92
2022-12-17T01:11:44.493Z,6.76
2022-12-17T01:14:29.281Z,6.69
2022-12-17T01:17:14.151Z,6.90
2022-12-17T01:19:59.078Z,6.83
2022-12-17T01:22:44.472Z,6.93
2022-12-17T01:25:29.389Z,6.78
2022-12-17T01:28:14.395Z,6.81
2022-12-17T01:30:59.198Z,6.78
2022-12-17T01:33:44.524Z,6.71
2022-12-17T01:36:29.777Z,6.71
2022-12-17T01:39:15.316Z,6.70
2022-12-17T01:42:00.637Z,6.68
2022-12-17T01:44:57.928Z,6.71
2022-12-17T01:47:45.361Z,6.63
2022-12-17T01:50:33.158Z,6.60
2022-12-17T01:53:21.580Z,6.38
2022-12-17T01:56:07.600Z,6.29
2022-12-17T01:58:54.400Z,6.38
2022-12-17T02:01:40.409Z,6.55
2022-12-17T02:04:27.666Z,6.61
2022-12-17T02:07:23.467Z,6.63
2022-12-17T02:10:21.556Z,6.71
2022-12-17T02:13:10.927Z,6.72
2022-12-17T02:16:02.735Z,6.55
2022-12-17T02:19:01.553Z,6.45
2022-12-17T02:21:48.328Z,6.33
2022-12-17T02:24:52.779Z,6.27
2022-12-17T02:27:38.237Z,6.33
2022-12-17T02:30:26.482Z,6.20
2022-12-17T02:33:12.746Z,6.26
2022-12-17T02:36:03.192Z,6.09
2022-12-17T02:38:50.191Z,6.38
2022-12-17T02:41:43.762Z,6.38
2022-12-17T02:44:31.826Z,6.10
2022-12-17T02:47:18.117Z,6.04
2022-12-17T02:50:03.630Z,6.12
2022-12-17T02:52:52.581Z,5.82
2022-12-17T02:55:38.001Z,5.93
2022-12-17T02:58:23.089Z,6.01
2022-12-17T03:01:07.841Z,5.87
2022-12-17T03:03:53.046Z,5.63
2022-12-17T03:06:37.813Z,5.83
2022-12-17T03:09:23.259Z,5.63
2022-12-17T03:12:08.711Z,5.66
2022-12-17T03:14:54.087Z,5.89
2022-12-17T03:17:44.090Z,5.83
2022-12-17T03:20:29.432Z,5.58
2022-12-17T03:23:31.586Z,5.55
2022-12-17T03:26:18.512Z,5.56
2022-12-17T03:29:03.893Z,5.66
2022-12-17T03:31:49.289Z,5.65
2022-12-17T03:34:34.110Z,5.65
2022-12-17T03:37:19.396Z,5.39
2022-12-17T03:40:04.486Z,5.44
2022-12-17T03:42:49.267Z,5.60
2022-12-17T03:45:34.692Z,5.64
2022-12-17T03:48:24.656Z,5.55
2022-12-17T03:51:11.790Z,5.55
2022-12-17T03:53:57.011Z,5.49
2022-12-17T03:56:42.446Z,5.59
2022-12-17T03:59:28.081Z,5.39
2022-12-17T04:02:13.671Z,5.39
2022-12-17T04:04:58.648Z,5.46
2022-12-17T04:07:43.504Z,5.36
2022-12-17T04:10:29.170Z,5.30
2022-12-17T04:13:14.471Z,5.29
2022-12-17T04:15:59.957Z,5.48
2022-12-17T04:18:45.071Z,5.39
2022-12-17T04:21:29.935Z,5.19
2022-12-17T04:24:15.256Z,5.29
2022-12-17T04:27:00.632Z,5.35
2022-12-17T04:29:45.707Z,5.44
2022-12-17T04:32:35.006Z,5.51
2022-12-17T04:35:20.773Z,5.54
2022-12-17T04:38:06.312Z,5.52
2022-12-17T04:40:51.367Z,5.55
2022-12-17T04:43:36.884Z,5.67
2022-12-17T04:46:22.119Z,5.69
2022-12-17T04:49:07.254Z,5.65
2022-12-17T04:51:52.205Z,5.62
2022-12-17T04:54:37.344Z,5.65
2022-12-17T04:57:22.616Z,5.64
2022-12-17T05:00:07.915Z,5.59
2022-12-17T05:02:52.932Z,5.61
2022-12-17T05:05:37.915Z,5.63
2022-12-17T05:08:23.350Z,5.61
2022-12-17T05:11:08.368Z,5.65
2022-12-17T05:13:53.151Z,5.72
2022-12-17T05:16:38.515Z,5.83
2022-12-17T05:19:23.369Z,5.81
2022-12-17T05:22:08.861Z,5.87
2022-12-17T05:24:53.678Z,5.92
2022-12-17T05:27:38.820Z,6.05
2022-12-17T05:30:24.536Z,6.03
2022-12-17T05:33:20.141Z,6.02
2022-12-17T05:36:15.884Z,6.09
2022-12-17T05:39:00.765Z,6.09
2022-12-17T05:41:45.627Z,6.16
2022-12-17T05:44:30.342Z,6.07
2022-12-17T05:47:15.648Z,6.13
2022-12-17T05:50:00.641Z,6.19
2022-12-17T05:52:46.073Z,6.21
2022-12-17T05:55:31.474Z,6.19
2022-12-17T05:58:24.627Z,6.19
2022-12-17T06:01:18.151Z,6.24
2022-12-17T06:04:03.424Z,6.20
2022-12-17T06:06:48.464Z,6.27
2022-12-17T06:09:33.554Z,6.30
2022-12-17T06:12:19.221Z,6.33
2022-12-17T06:15:04.063Z,6.34
2022-12-17T06:17:49.575Z,6.52
2022-12-17T06:20:34.766Z,6.50
2022-12-17T06:23:29.601Z,6.53
2022-12-17T06:26:15.361Z,6.58
2022-12-17T06:29:01.831Z,6.52
2022-12-17T06:31:47.223Z,6.53
2022-12-17T06:34:32.482Z,6.64
2022-12-17T06:37:17.987Z,6.64
2022-12-17T06:40:02.744Z,6.62
2022-12-17T06:42:47.525Z,6.53
2022-12-17T06:45:32.562Z,6.52
2022-12-17T06:48:24.591Z,6.51
2022-12-17T06:51:13.230Z,6.55
2022-12-17T06:53:59.313Z,6.59
2022-12-17T06:56:44.665Z,6.55
2022-12-17T06:59:29.857Z,6.69
2022-12-17T07:02:14.986Z,6.69
2022-12-17T07:04:59.942Z,6.70
2022-12-17T07:07:45.247Z,6.58
2022-12-17T07:10:30.096Z,6.67
2022-12-17T07:13:22.923Z,6.65
2022-12-17T07:16:08.015Z,6.60
2022-12-17T07:18:53.063Z,6.75
2022-12-17T07:21:38.365Z,6.58
2022-12-17T07:24:23.697Z,6.56
2022-12-17T07:27:08.673Z,6.59
2022-12-17T07:29:53.537Z,6.64
2022-12-17T07:32:38.449Z,6.67
2022-12-17T07:35:23.773Z,6.64
2022-12-17T07:38:08.586Z,6.70
2022-12-17T07:40:53.524Z,6.64
2022-12-17T07:43:38.679Z,6.60
2022-12-17T07:46:23.851Z,6.61
2022-12-17T07:49:08.929Z,6.45
2022-12-17T07:51:53.899Z,6.34
2022-12-17T07:54:38.811Z,6.56
2022-12-17T07:57:23.605Z,6.56
2022-12-17T08:00:08.553Z,6.62
2022-12-17T08:02:53.559Z,6.68
2022-12-17T08:05:38.770Z,6.78
2022-12-17T08:08:30.226Z,6.81
2022-12-17T08:11:15.465Z,6.82
2022-12-17T08:14:00.201Z,6.68
2022-12-17T08:16:45.284Z,6.56
2022-12-17T08:19:30.398Z,6.53
2022-12-17T08:22:15.602Z,6.60
2022-12-17T08:25:00.817Z,6.73
2022-12-17T08:27:46.232Z,6.76
2022-12-17T08:30:31.398Z,6.73
2022-12-17T08:33:22.054Z,6.64
2022-12-17T08:36:15.522Z,6.73
2022-12-17T08:39:01.529Z,6.76
2022-12-17T08:41:51.100Z,6.76
2022-12-17T08:44:39.061Z,6.89
2022-12-17T08:47:23.753Z,6.95
2022-12-17T08:50:08.664Z,7.00
2022-12-17T08:52:53.592Z,6.97
2022-12-17T08:55:39.012Z,7.09
2022-12-17T08:58:23.766Z,7.03
2022-12-17T09:01:09.049Z,6.98
2022-12-17T09:03:54.340Z,7.04
2022-12-17T09:06:39.676Z,7.04
2022-12-17T09:09:25.132Z,7.08
2022-12-17T09:12:10.377Z,7.05
2022-12-17T09:14:55.189Z,7.13
2022-12-17T09:17:40.536Z,7.12
2022-12-17T09:20:29.244Z,6.86
2022-12-17T09:23:14.676Z,7.04
2022-12-17T09:25:59.478Z,7.02
2022-12-17T09:28:44.291Z,7.02
2022-12-17T09:31:35.359Z,6.95
2022-12-17T09:34:22.269Z,7.00
2022-12-17T09:37:07.176Z,6.98
2022-12-17T09:39:52.575Z,6.98
2022-12-17T09:42:51.781Z,6.98
2022-12-17T09:46:01.970Z,7.13
2022-12-17T09:49:18.504Z,7.35
2022-12-17T09:52:03.788Z,7.34
2022-12-17T09:55:01.242Z,7.34
2022-12-17T09:57:51.227Z,7.31
2022-12-17T10:00:43.776Z,7.47
2022-12-17T10:03:41.768Z,7.51
2022-12-17T10:06:40.832Z,7.46
2022-12-17T10:09:32.306Z,7.43
2022-12-17T10:12:38.237Z,7.54
2022-12-17T10:15:25.297Z,7.62
2022-12-17T10:18:11.060Z,7.67
2022-12-17T10:21:07.054Z,7.68
2022-12-17T10:23:53.197Z,7.76
2022-12-17T10:26:42.349Z,7.85
2022-12-17T10:29:47.318Z,7.78
2022-12-17T10:32:33.506Z,7.56
2022-12-17T10:35:21.312Z,7.49
2022-12-17T10:38:06.640Z,7.54
2022-12-17T10:40:54.422Z,7.36
2022-12-17T10:43:44.430Z,7.52
2022-12-17T10:46:29.479Z,7.56
2022-12-17T10:49:44.081Z,7.67
2022-12-17T10:52:50.440Z,7.78
2022-12-17T10:55:43.836Z,7.78
2022-12-17T10:58:41.985Z,7.82
2022-12-17T11:01:31.403Z,7.87
2022-12-17T11:04:17.088Z,7.93
2022-12-17T11:07:09.120Z,7.94
2022-12-17T11:09:58.818Z,7.94
2022-12-17T11:12:56.991Z,7.87
2022-12-17T11:15:54.233Z,7.84
2022-12-17T11:18:44.624Z,7.89
2022-12-17T11:21:34.305Z,7.83
2022-12-17T11:24:22.980Z,7.97
2022-12-17T11:27:13.516Z,8.00
2022-12-17T11:29:58.637Z,7.97
2022-12-17T11:33:07.368Z,7.93
2022-12-17T11:36:06.356Z,7.98
2022-12-17T11:38:57.112Z,8.12
2022-12-17T11:41:58.246Z,8.16
2022-12-17T11:44:58.202Z,8.21
2022-12-17T11:48:05.274Z,8.02
2022-12-17T11:51:09.130Z,8.07
2022-12-17T11:54:23.476Z,8.17
2022-12-17T11:57:26.446Z,8.15
2022-12-17T12:00:31.580Z,8.16
2022-12-17T12:03:33.641Z,8.10
2022-12-17T12:06:20.309Z,8.05
2022-12-17T12:09:23.303Z,8.10
2022-12-17T12:12:23.481Z,8.03
2022-12-17T12:15:30.656Z,8.00
2022-12-17T12:18:20.611Z,8.09
2022-12-17T12:21:24.146Z,8.08
2022-12-17T12:24:22.205Z,8.04
2022-12-17T12:27:42.354Z,8.04
2022-12-17T12:30:36.352Z,8.07
2022-12-17T12:33:41.965Z,8.23
2022-12-17T12:36:30.618Z,8.13
2022-12-17T12:39:17.474Z,8.10
2022-12-17T12:42:29.435Z,7.71
2022-12-17T12:45:36.424Z,7.95
2022-12-17T12:48:37.010Z,8.16
2022-12-17T12:51:33.611Z,8.21
2022-12-17T12:54:20.925Z,7.87
2022-12-17T12:57:06.279Z,7.96
2022-12-17T12:59:55.972Z,8.05
2022-12-17T13:02:50.254Z,7.71
2022-12-17T13:05:35.126Z,7.82
2022-12-17T13:08:08.443Z,8.07
2022-12-17T13:10:37.165Z,8.21
2022-12-17T13:13:12.289Z,8.22
2022-12-17T13:15:45.940Z,7.80
2022-12-17T13:18:18.183Z,7.90
2022-12-17T13:20:55.946Z,8.14
2022-12-17T13:23:41.021Z,8.20
2022-12-17T13:26:14.248Z,8.22
2022-12-17T13:28:41.157Z,8.15
2022-12-17T13:31:19.908Z,8.19
2022-12-17T13:34:19.911Z,8.28
2022-12-17T13:36:55.555Z,8.31
2022-12-17T13:39:32.014Z,8.34
2022-12-17T13:41:58.639Z,8.24
2022-12-17T13:44:29.852Z,8.40
2022-12-17T13:46:56.657Z,8.19
2022-12-17T13:49:24.606Z,8.04
2022-12-17T13:52:11.775Z,7.92
2022-12-17T13:54:38.637Z,7.68
2022-12-17T13:57:10.825Z,7.87
2022-12-17T13:59:38.222Z,7.55
2022-12-17T14:02:04.908Z,7.56
2022-12-17T14:04:31.941Z,7.33
2022-12-17T14:07:03.284Z,7.52
2022-12-17T14:09:39.026Z,7.79
2022-12-17T14:12:22.205Z,7.91
2022-12-17T14:14:55.865Z,8.02
2022-12-17T14:17:25.140Z,8.13
2022-12-17T14:20:14.687Z,8.21
2022-12-17T14:22:51.104Z,8.23
2022-12-17T14:25:21.856Z,8.23
2022-12-17T14:27:54.492Z,8.29
2022-12-17T14:31:02.481Z,8.20
2022-12-17T14:33:34.469Z,8.16
2022-12-17T14:36:06.349Z,8.05
2022-12-17T14:38:45.060Z,7.97
2022-12-17T14:41:33.694Z,8.05
2022-12-17T14:44:03.421Z,8.10
2022-12-17T14:46:31.991Z,8.05
2022-12-17T14:49:00.657Z,8.11
2022-12-17T14:51:42.178Z,8.12
2022-12-17T14:54:14.870Z,8.04
2022-12-17T14:56:42.230Z,7.87
2022-12-17T14:59:34.170Z,7.91
2022-12-17T15:02:05.633Z,7.85
2022-12-17T15:04:32.699Z,7.89
2022-12-17T15:06:59.673Z,7.69
2022-12-17T15:09:26.302Z,7.78
2022-12-17T15:11:52.869Z,7.59
2022-12-17T15:14:19.395Z,7.68
2022-12-17T15:16:46.438Z,7.74
2022-12-17T15:19:13.073Z,7.71
2022-12-17T15:21:39.902Z,7.76
2022-12-17T15:24:10.765Z,7.64
2022-12-17T15:26:37.233Z,7.64
2022-12-17T15:29:03.763Z,7.55
2022-12-17T15:31:35.211Z,7.53
2022-12-17T15:34:02.230Z,7.49
2022-12-17T15:36:31.814Z,7.43
2022-12-17T15:38:59.108Z,7.47
2022-12-17T15:41:44.097Z,7.57
2022-12-17T15:44:10.471Z,7.59
2022-12-17T15:46:37.716Z,7.57
2022-12-17T15:49:04.366Z,7.31
2022-12-17T15:51:30.927Z,7.01
2022-12-17T15:53:57.518Z,7.18
2022-12-17T15:56:26.169Z,7.21
2022-12-17T15:58:53.059Z,7.14
2022-12-17T16:01:20.160Z,7.12
2022-12-17T16:03:47.118Z,7.22
2022-12-17T16:06:13.768Z,7.24
2022-12-17T16:08:40.877Z,7.25
2022-12-17T16:11:11.928Z,7.25
2022-12-17T16:13:39.213Z,7.38
2022-12-17T16:16:07.466Z,7.36
2022-12-17T16:18:36.620Z,7.24
2022-12-17T16:21:04.769Z,7.20
2022-12-17T16:23:31.511Z,7.09
2022-12-17T16:25:59.991Z,7.00
2022-12-17T16:28:27.590Z,6.89
2022-12-17T16:31:01.564Z,6.92
2022-12-17T16:33:35.520Z,6.88
2022-12-17T16:36:03.603Z,6.95
2022-12-17T16:38:30.268Z,6.78
2022-12-17T16:40:59.117Z,6.64
2022-12-17T16:43:26.951Z,6.62
2022-12-17T16:45:54.323Z,6.58
2022-12-17T16:48:21.950Z,6.56
2022-12-17T16:50:49.456Z,6.46
2022-12-17T16:53:16.297Z,6.42
2022-12-17T16:55:48.379Z,6.53
2022-12-17T16:58:17.088Z,6.56
2022-12-17T17:00:45.655Z,6.53
2022-12-17T17:03:12.557Z,6.49
2022-12-17T17:05:40.654Z,6.47
2022-12-17T17:08:07.443Z,6.47
2022-12-17T17:10:36.860Z,6.61
2022-12-17T17:13:04.066Z,6.55
2022-12-17T17:15:30.928Z,6.59
2022-12-17T17:18:01.500Z,6.68
2022-12-17T17:20:32.286Z,6.58
2022-12-17T17:22:59.672Z,6.54
2022-12-17T17:25:38.804Z,6.56
2022-12-17T17:28:13.093Z,6.46
2022-12-17T17:30:39.593Z,6.50
2022-12-17T17:33:06.372Z,6.45
2022-12-17T17:35:32.849Z,6.52
2022-12-17T17:37:59.518Z,6.48
2022-12-17T17:40:26.021Z,6.48
2022-12-17T17:42:53.281Z,6.30
2022-12-17T17:45:19.998Z,6.20
2022-12-17T17:47:46.553Z,6.08
2022-12-17T17:50:13.151Z,5.98
2022-12-17T17:52:39.619Z,6.04
2022-12-17T17:55:06.743Z,6.01
2022-12-17T17:57:33.297Z,5.93
2022-12-17T17:59:59.859Z,5.94
2022-12-17T18:02:26.558Z,5.89
2022-12-17T18:04:53.260Z,5.84
2022-12-17T18:07:27.953Z,5.74
2022-12-17T18:09:55.356Z,5.80
2022-12-17T18:12:40.956Z,5.84
2022-12-17T18:15:16.829Z,5.71
2022-12-17T18:17:46.892Z,5.59
2022-12-17T18:20:14.336Z,5.53
2022-12-17T18:22:41.029Z,5.61
2022-12-17T18:25:07.835Z,5.66
2022-12-17T18:27:34.372Z,5.72
2022-12-17T18:30:00.848Z,5.75
2022-12-17T18:32:27.641Z,5.83
2022-12-17T18:34:54.306Z,5.99
2022-12-17T18:37:20.847Z,6.02
2022-12-17T18:39:48.813Z,6.17
2022-12-17T18:42:34.200Z,6.23
2022-12-17T18:45:00.713Z,6.28
2022-12-17T18:47:27.952Z,6.34
2022-12-17T18:49:54.445Z,6.38
2022-12-17T18:52:22.696Z,6.41
2022-12-17T18:54:49.422Z,6.36
2022-12-17T18:57:15.971Z,6.36
2022-12-17T18:59:42.487Z,6.40
2022-12-17T19:02:13.214Z,6.39
2022-12-17T19:04:40.876Z,6.42
2022-12-17T19:07:07.512Z,6.58
2022-12-17T19:09:37.077Z,6.55
2022-12-17T19:12:06.425Z,6.62
2022-12-17T19:14:33.499Z,6.55
2022-12-17T19:17:00.026Z,6.52
2022-12-17T19:19:27.009Z,6.53
2022-12-17T19:22:00.097Z,6.38
2022-12-17T19:24:27.034Z,6.32
2022-12-17T19:26:53.581Z,6.25
2022-12-17T19:29:21.030Z,6.31
2022-12-17T19:31:48.052Z,6.13
2022-12-17T19:34:16.957Z,6.16
2022-12-17T19:36:44.324Z,6.29
2022-12-17T19:39:13.315Z,6.25
2022-12-17T19:41:40.168Z,6.23
2022-12-17T19:44:11.127Z,6.25
2022-12-17T19:46:37.816Z,6.27
2022-12-17T19:49:05.129Z,6.31
2022-12-17T19:51:32.430Z,6.25
2022-12-17T19:54:03.425Z,6.36
2022-12-17T19:56:34.594Z,6.18
2022-12-17T19:59:03.872Z,6.19
2022-12-17T20:01:36.731Z,5.95
2022-12-17T20:04:03.918Z,5.86
2022-12-17T20:06:32.377Z,5.91
2022-12-17T20:08:59.789Z,5.83
2022-12-17T20:11:36.148Z,5.81
2022-12-17T20:14:29.271Z,5.79
2022-12-17T20:16:58.175Z,5.68
2022-12-17T20:19:27.580Z,5.78
2022-12-17T20:21:54.983Z,5.72
2022-12-17T20:24:27.210Z,5.75
2022-12-17T20:26:57.445Z,5.62
2022-12-17T20:29:25.350Z,5.61
2022-12-17T20:31:53.192Z,5.61
2022-12-17T20:34:20.434Z,5.69
2022-12-17T20:36:47.059Z,5.59
2022-12-17T20:39:13.751Z,5.66
2022-12-17T20:41:41.113Z,5.62
2022-12-17T20:44:13.784Z,5.64
2022-12-17T20:46:41.241Z,5.67
2022-12-17T20:49:08.134Z,5.67
2022-12-17T20:51:34.915Z,5.57
2022-12-17T20:54:02.727Z,5.60
2022-12-17T20:56:32.197Z,5.64
2022-12-17T20:59:02.483Z,5.70
2022-12-17T21:01:31.778Z,5.76
2022-12-17T21:03:59.565Z,5.81
2022-12-17T21:06:27.876Z,5.83
2022-12-17T21:08:55.703Z,5.62
2022-12-17T21:11:28.330Z,5.59
2022-12-17T21:13:55.546Z,5.67
2022-12-17T21:16:25.707Z,5.62
2022-12-17T21:18:53.041Z,5.62
2022-12-17T21:21:22.892Z,5.71
2022-12-17T21:23:50.396Z,5.68
2022-12-17T21:26:26.391Z,5.80
2022-12-17T21:28:55.053Z,5.84
2022-12-17T21:31:30.704Z,5.81
2022-12-17T21:34:00.652Z,5.83
2022-12-17T21:36:29.450Z,5.80
2022-12-17T21:38:56.462Z,5.92
2022-12-17T21:41:26.575Z,5.96
2022-12-17T21:43:58.685Z,5.93
2022-12-17T21:46:27.330Z,6.06
2022-12-17T21:48:54.640Z,6.04
2022-12-17T21:51:22.546Z,6.04
2022-12-17T21:53:56.600Z,6.06
2022-12-17T21:56:23.878Z,6.04
2022-12-17T21:58:56.575Z,6.14
2022-12-17T22:01:26.134Z,6.13
2022-12-17T22:03:54.617Z,6.29
2022-12-17T22:06:26.037Z,6.33
2022-12-17T22:09:01.839Z,6.42
2022-12-17T22:11:36.581Z,6.47
2022-12-17T22:14:08.483Z,6.38
2022-12-17T22:16:42.491Z,6.55
2022-12-17T22:19:22.134Z,6.41
2022-12-17T22:21:50.892Z,6.33
2022-12-17T22:24:21.145Z,6.41
2022-12-17T22:26:48.433Z,6.40
2022-12-17T22:29:36.032Z,6.37
2022-12-17T22:32:20.742Z,6.40
2022-12-17T22:36:05.537Z,6.40
2022-12-17T22:41:51.381Z,6.47
2022-12-17T22:43:42.648Z,6.49
2022-12-17T22:44:37.200Z,6.60
2022-12-17T22:46:16.695Z,6.50
2022-12-17T22:48:43.305Z,6.34
2022-12-17T22:51:12.748Z,6.28
2022-12-17T22:53:52.488Z,6.22
2022-12-17T22:56:34.079Z,6.13
2022-12-17T22:59:07.304Z,6.09
2022-12-17T23:01:34.113Z,6.07
2022-12-17T23:04:02.544Z,6.05
2022-12-17T23:06:29.253Z,6.04
2022-12-17T23:08:56.724Z,6.10
2022-12-17T23:11:25.530Z,6.04
2022-12-17T23:13:53.239Z,6.01
2022-12-17T23:16:20.239Z,5.94
2022-12-17T23:18:48.719Z,5.81
2022-12-17T23:21:18.229Z,5.67
2022-12-17T23:23:45.168Z,5.81
2022-12-17T23:26:15.347Z,5.69
2022-12-17T23:28:42.702Z,5.77
2022-12-17T23:31:13.575Z,5.67
2022-12-17T23:33:40.812Z,5.50
2022-12-17T23:36:13.350Z,5.62
2022-12-17T23:38:40.453Z,5.71
2022-12-17T23:41:13.227Z,5.70
2022-12-17T23:43:40.640Z,5.66
2022-12-17T23:46:08.691Z,5.69
2022-12-17T23:48:42.051Z,5.81
2022-12-17T23:51:13.342Z,5.88
2022-12-17T23:53:40.428Z,5.80
2022-12-17T23:56:13.892Z,5.84
2022-12-17T23:58:42.536Z,5.89
